createdAt,value
2016-09-14T05:43:19.854Z,1016.96
2016-09-14T05:44:20.492Z,1017.01
2016-09-14T05:45:21.154Z,1016.98
2016-09-14T05:46:21.811Z,1017.02
2016-09-14T05:47:22.529Z,1017
2016-09-14T05:48:23.259Z,1017.02
2016-09-14T05:49:23.929Z,1016.98
2016-09-14T05:50:24.600Z,1017.01
2016-09-14T05:51:25.283Z,1016.97
2016-09-14T05:52:25.969Z,1017
2016-09-14T05:53:26.615Z,1017.01
2016-09-14T05:54:27.427Z,1017.01
2016-09-14T05:55:28.424Z,1017
2016-09-14T05:56:29.220Z,1017.01
2016-09-14T05:57:29.933Z,1017.04
2016-09-14T05:58:30.603Z,1017.02
2016-09-14T05:59:31.282Z,1017.02
2016-09-14T06:00:31.946Z,1017.01
2016-09-14T06:01:32.888Z,1017.06
2016-09-14T06:02:33.711Z,1017.08
2016-09-14T06:03:34.465Z,1017.06
2016-09-14T06:04:35.629Z,1017.1
2016-09-14T06:05:37.972Z,1017.03
2016-09-14T06:06:39.408Z,1017.05
2016-09-14T06:07:40.102Z,1017.06
2016-09-14T06:08:40.757Z,1017.08
2016-09-14T06:09:41.432Z,1017.07
2016-09-14T06:10:42.104Z,1017.05
2016-09-14T06:11:42.875Z,1017.03
2016-09-14T06:12:44.029Z,1017.02
2016-09-14T06:13:44.761Z,1017
2016-09-14T06:14:45.424Z,1017.02
2016-09-14T06:15:46.140Z,1017.04
2016-09-14T06:16:46.818Z,1017.05
2016-09-14T06:17:47.526Z,1017.03
2016-09-14T06:18:48.250Z,1017
2016-09-14T06:19:48.930Z,1016.98
2016-09-14T06:20:49.781Z,1017.03
2016-09-14T06:21:50.449Z,1017.02
2016-09-14T06:22:51.112Z,1017.04
2016-09-14T06:23:51.792Z,1017.01
2016-09-14T06:24:52.437Z,1017
2016-09-14T06:25:53.422Z,1017.01
2016-09-14T06:26:54.169Z,1016.99
2016-09-14T06:27:54.830Z,1017.03
2016-09-14T06:28:55.537Z,1017.01
2016-09-14T06:29:56.252Z,1017.03
2016-09-14T06:30:56.978Z,1016.99
2016-09-14T06:31:57.735Z,1017.03
2016-09-14T06:32:59.955Z,1017.07
2016-09-14T06:34:00.848Z,1017.05
2016-09-14T06:35:03.308Z,1017.08
2016-09-14T06:36:04.369Z,1017.11
2016-09-14T06:37:06.589Z,1017.07
2016-09-14T06:38:08.470Z,1017.07
2016-09-14T06:39:09.134Z,1017.07
2016-09-14T06:40:09.808Z,1017.13
2016-09-14T06:41:10.518Z,1017.11
2016-09-14T06:42:11.167Z,1017.1
2016-09-14T06:43:11.903Z,1017.08
2016-09-14T06:44:12.565Z,1017.08
2016-09-14T06:45:13.255Z,1017.08
2016-09-14T06:46:13.961Z,1017.11
2016-09-14T06:47:14.622Z,1017.05
2016-09-14T06:48:15.279Z,1017.1
2016-09-14T06:49:15.998Z,1017.08
2016-09-14T06:50:16.610Z,1017.1
2016-09-14T06:51:17.270Z,1017.07
2016-09-14T06:52:17.939Z,1017.05
2016-09-14T06:53:18.599Z,1017.13
2016-09-14T06:54:19.275Z,1017.14
2016-09-14T06:55:19.950Z,1017.14
2016-09-14T06:56:20.634Z,1017.13
2016-09-14T06:57:21.314Z,1017.12
2016-09-14T06:58:22.005Z,1017.1
2016-09-14T06:59:22.686Z,1017.11
2016-09-14T07:00:23.415Z,1017.13
2016-09-14T07:01:24.128Z,1017.12
2016-09-14T07:02:24.839Z,1017.14
2016-09-14T07:03:25.512Z,1017.11
2016-09-14T07:04:26.211Z,1017.14
2016-09-14T07:05:26.899Z,1017.17
2016-09-14T07:06:27.572Z,1017.15
2016-09-14T07:07:28.243Z,1017.17
2016-09-14T07:08:28.909Z,1017.16
2016-09-14T07:09:29.581Z,1017.16
2016-09-14T07:10:30.235Z,1017.2
2016-09-14T07:11:30.883Z,1017.18
2016-09-14T07:12:31.532Z,1017.17
2016-09-14T07:13:32.199Z,1017.18
2016-09-14T07:14:32.852Z,1017.19
2016-09-14T07:15:33.526Z,1017.19
2016-09-14T07:16:34.195Z,1017.21
2016-09-14T07:17:34.859Z,1017.19
2016-09-14T07:18:35.539Z,1017.12
2016-09-14T07:19:36.195Z,1017.14
2016-09-14T07:20:36.831Z,1017.19
2016-09-14T07:21:37.510Z,1017.23
2016-09-14T07:22:38.181Z,1017.18
2016-09-14T07:23:38.852Z,1017.24
2016-09-14T07:24:39.524Z,1017.14
2016-09-14T07:25:40.190Z,1017.16
2016-09-14T07:26:40.867Z,1017.18
2016-09-14T07:27:41.573Z,1017.16
2016-09-14T07:28:42.233Z,1017.18
2016-09-14T07:29:42.988Z,1017.23
2016-09-14T07:30:43.717Z,1017.2
2016-09-14T07:31:44.385Z,1017.2
2016-09-14T07:32:45.054Z,1017.22
2016-09-14T07:33:45.707Z,1017.25
2016-09-14T07:34:46.357Z,1017.23
2016-09-14T07:35:47.006Z,1017.23
2016-09-14T07:36:47.647Z,1017.24
2016-09-14T07:37:48.319Z,1017.3
2016-09-14T07:38:48.984Z,1017.31
2016-09-14T07:39:49.630Z,1017.29
2016-09-14T07:40:50.282Z,1017.26
2016-09-14T07:41:50.962Z,1017.31
2016-09-14T07:42:51.616Z,1017.26
2016-09-14T07:43:52.253Z,1017.28
2016-09-14T07:44:52.916Z,1017.26
2016-09-14T07:45:53.564Z,1017.31
2016-09-14T07:46:54.548Z,1017.3
2016-09-14T07:47:55.312Z,1017.29
2016-09-14T07:48:56.214Z,1017.32
2016-09-14T07:49:57.016Z,1017.29
2016-09-14T07:50:57.957Z,1017.28
2016-09-14T07:51:59.128Z,1017.3
2016-09-14T07:53:04.095Z,1017.29
2016-09-14T07:54:04.759Z,1017.35
2016-09-14T07:55:05.413Z,1017.31
2016-09-14T07:56:06.082Z,1017.3
2016-09-14T07:57:06.747Z,1017.3
2016-09-14T07:58:07.423Z,1017.32
2016-09-14T07:59:08.498Z,1017.27
2016-09-14T08:00:09.376Z,1017.3
2016-09-14T08:01:10.049Z,1017.32
2016-09-14T08:02:10.711Z,1017.29
2016-09-14T08:03:12.606Z,1017.28
2016-09-14T08:04:13.151Z,1017.29
2016-09-14T08:05:13.803Z,1017.32
2016-09-14T08:06:14.477Z,1017.27
2016-09-14T08:07:15.121Z,1017.27
2016-09-14T08:08:15.769Z,1017.33
2016-09-14T08:09:16.444Z,1017.27
2016-09-14T08:10:17.128Z,1017.28
2016-09-14T08:11:17.780Z,1017.21
2016-09-14T08:12:18.547Z,1017.18
2016-09-14T08:13:19.228Z,1017.2
2016-09-14T08:14:19.905Z,1017.19
2016-09-14T08:15:20.549Z,1017.23
2016-09-14T08:16:21.199Z,1017.21
2016-09-14T08:17:21.874Z,1017.25
2016-09-14T08:18:22.545Z,1017.2
2016-09-14T08:19:23.190Z,1017.16
2016-09-14T08:20:23.858Z,1017.19
2016-09-14T08:21:24.495Z,1017.22
2016-09-14T08:22:25.142Z,1017.16
2016-09-14T08:23:25.791Z,1017.26
2016-09-14T08:24:26.494Z,1017.2
2016-09-14T08:25:27.137Z,1017.17
2016-09-14T08:26:27.808Z,1017.21
2016-09-14T08:27:28.456Z,1017.21
2016-09-14T08:28:29.109Z,1017.21
2016-09-14T08:29:29.835Z,1017.24
2016-09-14T08:30:30.516Z,1017.26
2016-09-14T08:31:31.187Z,1017.22
2016-09-14T08:32:31.868Z,1017.23
2016-09-14T08:33:32.530Z,1017.22
2016-09-14T08:34:33.192Z,1017.2
2016-09-14T08:35:33.883Z,1017.18
2016-09-14T08:36:34.550Z,1017.22
2016-09-14T08:37:35.230Z,1017.22
2016-09-14T08:38:35.896Z,1017.23
2016-09-14T08:39:36.561Z,1017.2
2016-09-14T08:40:37.235Z,1017.19
2016-09-14T08:41:37.892Z,1017.23
2016-09-14T08:42:38.566Z,1017.25
2016-09-14T08:43:39.227Z,1017.26
2016-09-14T08:44:39.870Z,1017.28
2016-09-14T08:45:40.532Z,1017.31
2016-09-14T08:46:41.241Z,1017.25
2016-09-14T08:47:41.912Z,1017.23
2016-09-14T08:48:42.562Z,1017.23
2016-09-14T08:49:43.236Z,1017.26
2016-09-14T08:50:43.903Z,1017.26
2016-09-14T08:51:44.580Z,1017.22
2016-09-14T08:52:45.305Z,1017.25
2016-09-14T08:53:45.975Z,1017.2
2016-09-14T08:54:46.645Z,1017.24
2016-09-14T08:55:47.315Z,1017.25
2016-09-14T08:56:47.976Z,1017.25
2016-09-14T08:57:48.647Z,1017.24
2016-09-14T08:58:49.320Z,1017.28
2016-09-14T08:59:50.000Z,1017.24
2016-09-14T09:00:50.676Z,1017.24
2016-09-14T09:01:51.343Z,1017.21
2016-09-14T09:02:52.005Z,1017.23
2016-09-14T09:03:52.687Z,1017.26
2016-09-14T09:04:53.369Z,1017.26
2016-09-14T09:05:54.091Z,1017.26
2016-09-14T09:06:54.756Z,1017.24
2016-09-14T09:07:55.415Z,1017.22
2016-09-14T09:08:56.127Z,1017.23
2016-09-14T09:09:56.852Z,1017.18
2016-09-14T09:10:57.519Z,1017.16
2016-09-14T09:11:58.232Z,1017.19
2016-09-14T09:12:58.893Z,1017.16
2016-09-14T09:13:59.564Z,1017.14
2016-09-14T09:15:00.239Z,1017.09
2016-09-14T09:16:00.917Z,1017.07
2016-09-14T09:17:01.581Z,1017.1
2016-09-14T09:18:02.248Z,1017.11
2016-09-14T09:19:02.916Z,1017.17
2016-09-14T09:20:03.610Z,1017.14
2016-09-14T09:21:04.282Z,1017.13
2016-09-14T09:22:04.990Z,1017.16
2016-09-14T09:23:05.658Z,1017.15
2016-09-14T09:24:06.321Z,1017.11
2016-09-14T09:25:06.999Z,1017.13
2016-09-14T09:26:07.664Z,1017.1
2016-09-14T09:27:08.333Z,1017.12
2016-09-14T09:28:08.981Z,1017.07
2016-09-14T09:29:09.640Z,1017.05
2016-09-14T09:30:10.304Z,1017.06
2016-09-14T09:31:10.975Z,1017.07
2016-09-14T09:32:11.648Z,1017.09
2016-09-14T09:33:12.323Z,1017.09
2016-09-14T09:34:12.978Z,1017.05
2016-09-14T09:35:13.628Z,1017.08
2016-09-14T09:36:14.275Z,1017.04
2016-09-14T09:37:14.920Z,1017.03
2016-09-14T09:38:15.581Z,1017.04
2016-09-14T09:39:16.253Z,1017.03
2016-09-14T09:40:16.912Z,1017.06
2016-09-14T09:41:17.560Z,1017.05
2016-09-14T09:42:18.218Z,1016.98
2016-09-14T09:43:18.870Z,1017.03
2016-09-14T09:44:19.511Z,1017.06
2016-09-14T09:45:20.158Z,1017.07
2016-09-14T09:46:20.804Z,1017.09
2016-09-14T09:47:21.491Z,1017.09
2016-09-14T09:48:22.136Z,1017.1
2016-09-14T09:49:22.810Z,1017.07
2016-09-14T09:50:23.475Z,1017.08
2016-09-14T09:51:24.131Z,1017.1
2016-09-14T09:52:24.791Z,1017.04
2016-09-14T09:53:25.426Z,1017.08
2016-09-14T09:54:26.122Z,1017.07
2016-09-14T09:55:26.771Z,1017.1
2016-09-14T09:56:27.423Z,1017.04
2016-09-14T09:57:28.096Z,1017.08
2016-09-14T09:58:28.754Z,1017.08
2016-09-14T09:59:29.439Z,1017.07
2016-09-14T10:00:30.128Z,1016.98
2016-09-14T10:01:30.787Z,1017.03
2016-09-14T10:02:31.430Z,1017.02
2016-09-14T10:03:32.101Z,1017.03
2016-09-14T10:04:32.800Z,1017.03
2016-09-14T10:05:33.572Z,1017.03
2016-09-14T10:06:34.260Z,1017.07
2016-09-14T10:07:34.942Z,1017.07
2016-09-14T10:08:35.607Z,1017.03
2016-09-14T10:09:36.262Z,1016.99
2016-09-14T10:10:36.927Z,1017.03
2016-09-14T10:11:38.085Z,1016.99
2016-09-14T10:12:39.813Z,1017.02
2016-09-14T10:13:40.484Z,1016.99
2016-09-14T10:14:41.152Z,1016.99
2016-09-14T10:15:41.808Z,1017.02
2016-09-14T10:16:42.478Z,1017.08
2016-09-14T10:17:43.146Z,1016.98
2016-09-14T10:18:43.800Z,1016.95
2016-09-14T10:19:44.452Z,1016.96
2016-09-14T10:20:45.188Z,1016.99
2016-09-14T10:21:45.841Z,1017.04
2016-09-14T10:22:46.496Z,1017.02
2016-09-14T10:23:47.143Z,1017.02
2016-09-14T10:24:47.817Z,1016.94
2016-09-14T10:25:48.482Z,1017
2016-09-14T10:26:49.184Z,1016.99
2016-09-14T10:27:49.835Z,1016.92
2016-09-14T10:28:50.492Z,1016.88
2016-09-14T10:29:51.134Z,1016.9
2016-09-14T10:30:51.788Z,1016.91
2016-09-14T10:31:52.428Z,1016.94
2016-09-14T10:32:53.102Z,1016.94
2016-09-14T10:33:53.757Z,1016.91
2016-09-14T10:34:54.478Z,1016.89
2016-09-14T10:35:55.120Z,1016.86
2016-09-14T10:36:55.775Z,1016.91
2016-09-14T10:37:56.429Z,1016.89
2016-09-14T10:38:57.078Z,1016.88
2016-09-14T10:39:57.737Z,1016.88
2016-09-14T10:40:58.394Z,1016.89
2016-09-14T10:41:59.043Z,1016.94
2016-09-14T10:42:59.754Z,1016.87
2016-09-14T10:44:01.270Z,1016.92
2016-09-14T10:45:01.917Z,1016.94
2016-09-14T10:46:02.684Z,1016.91
2016-09-14T10:47:03.337Z,1016.95
2016-09-14T10:48:04.004Z,1016.93
2016-09-14T10:49:04.708Z,1016.95
2016-09-14T10:50:05.368Z,1016.91
2016-09-14T10:51:06.273Z,1016.85
2016-09-14T10:52:06.945Z,1016.94
2016-09-14T10:53:07.620Z,1016.98
2016-09-14T10:54:08.303Z,1016.88
2016-09-14T10:55:09.052Z,1016.87
2016-09-14T10:56:09.748Z,1016.87
2016-09-14T10:57:10.431Z,1016.82
2016-09-14T10:58:11.186Z,1016.92
2016-09-14T10:59:11.952Z,1016.83
2016-09-14T11:00:12.755Z,1016.82
2016-09-14T11:01:13.416Z,1016.8
2016-09-14T11:02:14.067Z,1016.86
2016-09-14T11:03:14.723Z,1016.85
2016-09-14T11:04:15.380Z,1016.81
2016-09-14T11:05:16.036Z,1016.84
2016-09-14T11:06:16.704Z,1016.81
2016-09-14T11:07:17.349Z,1016.86
2016-09-14T11:08:18.024Z,1016.83
2016-09-14T11:09:18.677Z,1016.81
2016-09-14T11:10:19.380Z,1016.9
2016-09-14T11:11:19.975Z,1016.84
2016-09-14T11:12:20.634Z,1016.78
2016-09-14T11:13:21.305Z,1016.83
2016-09-14T11:14:21.957Z,1016.76
2016-09-14T11:15:22.649Z,1016.72
2016-09-14T11:16:23.323Z,1016.82
2016-09-14T11:17:23.973Z,1016.95
2016-09-14T11:18:24.618Z,1016.81
2016-09-14T11:19:25.274Z,1016.8
2016-09-14T11:20:25.948Z,1016.84
2016-09-14T11:21:26.604Z,1016.83
2016-09-14T11:22:27.281Z,1016.8
2016-09-14T11:23:27.973Z,1016.78
2016-09-14T11:24:28.645Z,1016.79
2016-09-14T11:25:29.311Z,1016.76
2016-09-14T11:26:29.972Z,1016.78
2016-09-14T11:27:30.833Z,1016.76
2016-09-14T11:28:31.600Z,1016.81
2016-09-14T11:29:32.251Z,1016.85
2016-09-14T11:30:32.913Z,1016.81
2016-09-14T11:31:33.593Z,1016.81
2016-09-14T11:32:34.241Z,1016.84
2016-09-14T11:33:34.937Z,1016.79
2016-09-14T11:34:35.590Z,1016.77
